Goldfield, Colorado
Current Conditions -  °F | °C
As of 6:56 PM on Saturday 25 Oct 2014 (Local Time) from KCWN Reporting Station
Clear Clear  
Wind Chill: 64°   Ceiling: Unl
Heat Index: 64°   Visibility: 10mi
Dew Point: 20°   Wind: 1mph
Humidity: 19%   Direction: NA
Pressure: 30.15"   Gusts: NA
Location:  38.6816°N, 105.071°W
Report Text: KCWN 260056Z AUTO VRB01KT 10SM CLR 18/M07 A3015 RMK AO2 SLP135 T01771066
Loading
Personal Weather Stations






























Interactive Weather Map
Tropical Storm Tracking
New forecast layout! Learn more

10-Day Weather Forecast

Advertisements
Track Severe Weather on mobile